Time;durP1;ratioP1;P1;durP2;ratioP2;P2;SDS_P1;SDS_P2;PMS_P1;PMS_P2;Temp;Humidity;BMP_temperature;BMP_pressure;BME280_temperature;BME280_humidity;BME280_pressure;Samples;Min_cycle;Max_cycle;Signal;HPM_P1;HPM_P2
2021/09/09 00:00:25;;;;;;;;;;;15.00;99.90;;;;;;5034308;28;19925;-74
2021/09/09 00:02:54;;;;;;;;;;;15.00;99.90;;;;;;5033926;28;20377;-73
2021/09/09 00:05:27;;;;;;;;;;;14.90;99.90;;;;;;5017907;28;19924;-74
2021/09/09 00:07:59;;;;;;;;;;;14.90;99.90;;;;;;5033804;28;19928;-74
2021/09/09 00:10:26;;;;;;;;;;;14.90;99.90;;;;;;5033661;28;19935;-73
2021/09/09 00:12:53;;;;;;;;;;;14.90;99.90;;;;;;5017477;28;19931;-74
2021/09/09 00:15:25;;;;;;;;;;;15.00;99.90;;;;;;5018060;28;20149;-74
2021/09/09 00:17:52;;;;;;;;;;;15.00;99.90;;;;;;5033932;28;19924;-74
2021/09/09 00:20:24;;;;;;;;;;;15.00;99.90;;;;;;5018389;28;19925;-73
2021/09/09 00:22:51;;;;;;;;;;;15.00;99.90;;;;;;5017696;28;19932;-74
2021/09/09 00:25:23;;;;;;;;;;;15.00;99.90;;;;;;5018269;28;19925;-74
2021/09/09 00:27:51;;;;;;;;;;;15.00;99.90;;;;;;5034371;28;19928;-74
2021/09/09 00:30:18;;;;;;;;;;;15.00;99.90;;;;;;5033872;28;19928;-74
2021/09/09 00:32:45;;;;;;;;;;;15.00;99.90;;;;;;5033941;28;20019;-75
2021/09/09 00:35:17;;;;;;;;;;;15.00;99.90;;;;;;5034692;28;20291;-74
2021/09/09 00:37:44;;;;;;;;;;;15.00;99.90;;;;;;5034097;28;20022;-74
2021/09/09 00:40:11;;;;;;;;;;;15.00;99.90;;;;;;5033968;28;19925;-74
2021/09/09 00:42:39;;;;;;;;;;;15.00;99.90;;;;;;5017536;28;19964;-74
2021/09/09 00:45:06;;;;;;;;;;;14.90;99.90;;;;;;5033537;28;20367;-74
2021/09/09 00:47:38;;;;;;;;;;;14.90;99.90;;;;;;5033898;28;19931;-74
2021/09/09 00:50:10;;;;;;;;;;;14.90;99.90;;;;;;5033688;28;19925;-74
2021/09/09 00:52:37;;;;;;;;;;;14.90;99.90;;;;;;5017436;28;19925;-74
2021/09/09 00:55:09;;;;;;;;;;;14.80;99.90;;;;;;5017774;28;19929;-74
2021/09/09 00:57:36;;;;;;;;;;;14.80;99.90;;;;;;5017232;28;19963;-74
2021/09/09 01:00:08;;;;;;;;;;;14.70;99.90;;;;;;5033246;28;19971;-74
2021/09/09 01:02:40;;;;;;;;;;;14.70;99.90;;;;;;5033279;28;19932;-74
2021/09/09 01:05:11;;;;;;;;;;;14.60;99.90;;;;;;5032955;28;20012;-74
2021/09/09 01:07:39;;;;;;;;;;;14.60;99.90;;;;;;5032919;28;19929;-74
2021/09/09 01:10:11;;;;;;;;;;;14.50;99.90;;;;;;5032899;28;19970;-74
2021/09/09 01:12:38;;;;;;;;;;;14.40;99.90;;;;;;5033021;28;19925;-74
2021/09/09 01:15:05;;;;;;;;;;;14.40;99.90;;;;;;5032645;28;20574;-74
2021/09/09 01:17:37;;;;;;;;;;;14.30;99.90;;;;;;5034047;28;19975;-74
2021/09/09 01:20:09;;;;;;;;;;;14.30;99.90;;;;;;5017431;28;19932;-74
2021/09/09 01:22:36;;;;;;;;;;;14.20;99.90;;;;;;5016375;28;19974;-74
2021/09/09 01:25:02;;;;;;;;;;;14.20;99.90;;;;;;5016231;28;20027;-74
2021/09/09 01:27:29;;;;;;;;;;;14.20;99.90;;;;;;5032991;28;20356;-74
2021/09/09 01:29:56;;;;;;;;;;;14.20;99.90;;;;;;5016810;28;19925;-74
2021/09/09 01:32:27;;;;;;;;;;;14.20;99.90;;;;;;5033515;28;19992;-74
2021/09/09 01:34:59;;;;;;;;;;;14.20;99.90;;;;;;5019785;28;19932;-74
2021/09/09 01:37:26;;;;;;;;;;;14.20;99.90;;;;;;5020233;28;20356;-74
2021/09/09 01:39:57;;;;;;;;;;;14.20;99.90;;;;;;5036406;28;20023;-74
2021/09/09 01:42:24;;;;;;;;;;;14.20;99.90;;;;;;5036274;28;20024;-74
2021/09/09 01:44:51;;;;;;;;;;;14.30;99.90;;;;;;5035908;28;19979;-74
2021/09/09 01:47:23;;;;;;;;;;;14.20;99.90;;;;;;5020611;28;20343;-74
2021/09/09 01:49:54;;;;;;;;;;;14.20;99.90;;;;;;5020318;28;19925;-74
2021/09/09 01:52:21;;;;;;;;;;;14.20;99.90;;;;;;5036570;28;19975;-74
2021/09/09 01:54:48;;;;;;;;;;;14.20;99.90;;;;;;5036439;28;19925;-74
2021/09/09 01:57:14;;;;;;;;;;;14.10;99.90;;;;;;5054192;28;19971;-74
2021/09/09 01:59:41;;;;;;;;;;;14.10;99.90;;;;;;5036269;28;19925;-74
2021/09/09 02:02:13;;;;;;;;;;;14.10;99.90;;;;;;5054144;28;19968;-74
2021/09/09 02:04:39;;;;;;;;;;;14.10;99.90;;;;;;5036435;28;20004;-74
2021/09/09 02:07:06;;;;;;;;;;;14.00;99.90;;;;;;5036349;28;19924;-74
2021/09/09 02:09:38;;;;;;;;;;;14.10;99.90;;;;;;5054528;28;19971;-74
2021/09/09 02:12:04;;;;;;;;;;;14.10;99.90;;;;;;5036401;28;20338;-74
2021/09/09 02:14:36;;;;;;;;;;;14.10;99.90;;;;;;5020390;28;19925;-74
2021/09/09 02:17:03;;;;;;;;;;;14.10;99.90;;;;;;5036681;28;19994;-74
2021/09/09 02:19:35;;;;;;;;;;;14.10;99.90;;;;;;5037040;28;20019;-74
2021/09/09 02:22:02;;;;;;;;;;;14.10;99.90;;;;;;5019769;28;19951;-74
2021/09/09 02:24:28;;;;;;;;;;;14.10;99.90;;;;;;5019434;28;20334;-74
2021/09/09 02:27:00;;;;;;;;;;;14.10;99.90;;;;;;5020545;28;20450;-74
2021/09/09 02:29:27;;;;;;;;;;;14.10;99.90;;;;;;5035811;28;19952;-74
2021/09/09 02:31:58;;;;;;;;;;;14.00;99.90;;;;;;5036866;28;19931;-74
2021/09/09 02:34:25;;;;;;;;;;;14.00;99.90;;;;;;5035773;28;20331;-74
2021/09/09 02:36:52;;;;;;;;;;;14.00;99.90;;;;;;5019495;28;19924;-74
2021/09/09 02:39:24;;;;;;;;;;;13.90;99.90;;;;;;5036723;28;19974;-74
2021/09/09 02:41:55;;;;;;;;;;;13.80;99.90;;;;;;5053505;28;19924;-74
2021/09/09 02:44:22;;;;;;;;;;;13.80;99.90;;;;;;5035300;28;19925;-74
2021/09/09 02:46:54;;;;;;;;;;;13.80;99.90;;;;;;5020034;28;19925;-74
2021/09/09 02:49:25;;;;;;;;;;;13.80;99.90;;;;;;5035663;28;20023;-74
2021/09/09 02:51:57;;;;;;;;;;;13.80;99.90;;;;;;5019865;28;19955;-74
2021/09/09 02:54:29;;;;;;;;;;;13.80;99.90;;;;;;5019256;28;20008;-74
2021/09/09 02:56:55;;;;;;;;;;;13.80;99.90;;;;;;5035564;28;19971;-74
2021/09/09 02:59:27;;;;;;;;;;;13.80;99.90;;;;;;5035507;28;19956;-74
2021/09/09 03:01:54;;;;;;;;;;;13.70;99.90;;;;;;5035377;28;20011;-74
2021/09/09 03:04:26;;;;;;;;;;;13.80;99.90;;;;;;5034950;28;19968;-73
2021/09/09 03:06:52;;;;;;;;;;;13.80;99.90;;;;;;5035053;28;20028;-74
2021/09/09 03:09:19;;;;;;;;;;;13.80;99.90;;;;;;5035614;28;20256;-74
2021/09/09 03:11:46;;;;;;;;;;;13.80;99.90;;;;;;5035157;28;19925;-74
2021/09/09 03:14:17;;;;;;;;;;;13.70;99.90;;;;;;5019104;28;19994;-74
2021/09/09 03:16:44;;;;;;;;;;;13.70;99.90;;;;;;5035178;28;20020;-74
2021/09/09 03:19:11;;;;;;;;;;;13.60;99.90;;;;;;5035007;28;19956;-74
2021/09/09 03:21:42;;;;;;;;;;;13.60;99.90;;;;;;5019283;28;19971;-74
2021/09/09 03:24:15;;;;;;;;;;;13.60;99.90;;;;;;5034653;28;19932;-74
2021/09/09 03:26:42;;;;;;;;;;;13.60;99.90;;;;;;5035029;28;19956;-74
2021/09/09 03:29:10;;;;;;;;;;;13.60;99.90;;;;;;5034862;28;19926;-74
2021/09/09 03:31:37;;;;;;;;;;;13.50;99.90;;;;;;5035041;28;20006;-74
2021/09/09 03:34:09;;;;;;;;;;;13.50;99.90;;;;;;5034289;28;20019;-74
2021/09/09 03:36:35;;;;;;;;;;;13.40;99.90;;;;;;5034848;28;19925;-74
2021/09/09 03:39:02;;;;;;;;;;;13.40;99.90;;;;;;5052439;28;20000;-74
2021/09/09 03:41:29;;;;;;;;;;;13.40;99.90;;;;;;5034702;28;19924;-74
2021/09/09 03:43:56;;;;;;;;;;;13.40;99.90;;;;;;5034432;28;19925;-73
2021/09/09 03:46:23;;;;;;;;;;;13.40;99.90;;;;;;5017850;28;19964;-74
2021/09/09 03:48:50;;;;;;;;;;;13.40;99.90;;;;;;5034356;28;19955;-74
2021/09/09 03:51:16;;;;;;;;;;;13.40;99.90;;;;;;5033804;28;19947;-74
2021/09/09 03:53:49;;;;;;;;;;;13.40;99.90;;;;;;5018377;28;19960;-74
2021/09/09 03:56:16;;;;;;;;;;;13.40;99.90;;;;;;5033125;28;19947;-74
2021/09/09 03:58:47;;;;;;;;;;;13.30;99.90;;;;;;5018116;28;19990;-74
2021/09/09 04:01:20;;;;;;;;;;;13.40;99.90;;;;;;5018140;28;19925;-77
2021/09/09 04:03:47;;;;;;;;;;;13.40;99.90;;;;;;5010064;28;19949;-75
2021/09/09 04:06:21;;;;;;;;;;;13.30;99.90;;;;;;5012050;28;19925;-74
2021/09/09 04:08:49;;;;;;;;;;;13.30;99.90;;;;;;5033094;28;19925;-75
2021/09/09 04:11:21;;;;;;;;;;;13.30;99.90;;;;;;5033354;28;19982;-74
2021/09/09 04:13:53;;;;;;;;;;;13.40;99.90;;;;;;5032130;28;20295;-73
2021/09/09 04:16:26;;;;;;;;;;;13.40;99.90;;;;;;5030724;28;19964;-74
2021/09/09 04:18:53;;;;;;;;;;;13.40;99.90;;;;;;5032969;28;19925;-74
2021/09/09 04:21:20;;;;;;;;;;;13.40;99.90;;;;;;5042244;28;20288;-74
2021/09/09 04:23:47;;;;;;;;;;;13.40;99.90;;;;;;5071055;28;19978;-75
2021/09/09 04:26:13;;;;;;;;;;;13.40;99.90;;;;;;5053676;28;19929;-74
2021/09/09 04:28:40;;;;;;;;;;;13.40;99.90;;;;;;5033170;28;19974;-74
2021/09/09 04:31:12;;;;;;;;;;;13.40;99.90;;;;;;5009484;28;19982;-74
2021/09/09 04:33:38;;;;;;;;;;;13.40;99.90;;;;;;5051052;28;20445;-74
2021/09/09 04:36:10;;;;;;;;;;;13.40;99.90;;;;;;5017475;28;20015;-73
2021/09/09 04:38:42;;;;;;;;;;;13.40;99.90;;;;;;5025107;28;19968;-74
2021/09/09 04:41:09;;;;;;;;;;;13.40;99.90;;;;;;5033258;28;19975;-74
2021/09/09 04:43:35;;;;;;;;;;;13.40;99.90;;;;;;5033704;28;19931;-74
2021/09/09 04:46:07;;;;;;;;;;;13.40;99.90;;;;;;5033092;28;20376;-74
2021/09/09 04:48:39;;;;;;;;;;;13.40;99.90;;;;;;5033411;28;20007;-74
2021/09/09 04:51:06;;;;;;;;;;;13.40;99.90;;;;;;5033797;28;20367;-74
2021/09/09 04:53:37;;;;;;;;;;;13.40;99.90;;;;;;5033389;28;19964;-74
2021/09/09 04:56:04;;;;;;;;;;;13.40;99.90;;;;;;5033165;28;20333;-74
2021/09/09 04:58:31;;;;;;;;;;;13.50;99.90;;;;;;5033356;28;19925;-73
2021/09/09 05:01:02;;;;;;;;;;;13.50;99.90;;;;;;5017948;28;19929;-74
2021/09/09 05:03:34;;;;;;;;;;;13.50;99.90;;;;;;5033217;28;19928;-74
2021/09/09 05:06:06;;;;;;;;;;;13.50;99.90;;;;;;5050813;28;19931;-74
2021/09/09 05:08:37;;;;;;;;;;;13.50;99.90;;;;;;5033690;28;19979;-74
2021/09/09 05:11:07;;;;;;;;;;;13.50;99.90;;;;;;5036759;28;20008;-75
2021/09/09 05:13:33;;;;;;;;;;;13.50;99.90;;;;;;5036552;28;20015;-74
2021/09/09 05:16:05;;;;;;;;;;;13.50;99.90;;;;;;5037483;28;20306;-74
2021/09/09 05:18:32;;;;;;;;;;;13.50;99.90;;;;;;5054634;28;20016;-74
2021/09/09 05:21:04;;;;;;;;;;;13.50;99.90;;;;;;5034726;28;20008;-74
2021/09/09 05:23:36;;;;;;;;;;;13.50;99.90;;;;;;5035747;28;19924;-74
2021/09/09 05:26:02;;;;;;;;;;;13.50;99.90;;;;;;5020826;28;19929;-73
2021/09/09 05:28:34;;;;;;;;;;;13.50;99.90;;;;;;5034639;28;20024;-74
2021/09/09 05:31:01;;;;;;;;;;;13.50;99.90;;;;;;5018142;28;20023;-74
2021/09/09 05:33:32;;;;;;;;;;;13.50;99.90;;;;;;5035700;28;19935;-75
2021/09/09 05:35:59;;;;;;;;;;;13.50;99.90;;;;;;5019818;28;19948;-73
2021/09/09 05:38:26;;;;;;;;;;;13.50;99.90;;;;;;5036923;28;19925;-73
2021/09/09 05:40:58;;;;;;;;;;;13.50;99.90;;;;;;5016126;28;20036;-74
2021/09/09 05:43:31;;;;;;;;;;;13.50;99.90;;;;;;5029077;28;20035;-73
2021/09/09 05:46:06;;;;;;;;;;;13.50;99.90;;;;;;5035948;28;20044;-74
2021/09/09 05:48:42;;;;;;;;;;;13.60;99.90;;;;;;5036330;28;19925;-74
2021/09/09 05:51:13;;;;;;;;;;;13.70;99.90;;;;;;5036354;28;19951;-73
2021/09/09 05:53:46;;;;;;;;;;;13.80;99.90;;;;;;5036257;28;20015;-74
2021/09/09 05:56:18;;;;;;;;;;;13.80;99.90;;;;;;5036339;28;20021;-74
2021/09/09 05:58:52;;;;;;;;;;;13.80;99.90;;;;;;5035263;28;20006;-74
2021/09/09 06:01:25;;;;;;;;;;;13.80;99.90;;;;;;5043805;28;19932;-74
2021/09/09 06:04:03;;;;;;;;;;;13.80;99.90;;;;;;5019221;28;19948;-73
2021/09/09 06:06:38;;;;;;;;;;;13.80;99.90;;;;;;5020423;28;19925;-74
2021/09/09 06:09:14;;;;;;;;;;;13.80;99.90;;;;;;5020381;28;19937;-75
2021/09/09 06:11:53;;;;;;;;;;;13.90;99.90;;;;;;5031055;28;19940;-74
2021/09/09 06:14:21;;;;;;;;;;;13.90;99.90;;;;;;5030686;28;19925;-74
2021/09/09 06:16:48;;;;;;;;;;;14.00;99.90;;;;;;5035294;28;20058;-74
2021/09/09 06:19:26;;;;;;;;;;;14.00;99.90;;;;;;5035268;28;19947;-73
2021/09/09 06:22:01;;;;;;;;;;;14.00;99.90;;;;;;5030833;28;19925;-74
2021/09/09 06:24:29;;;;;;;;;;;14.10;99.90;;;;;;5052917;28;19932;-74
2021/09/09 06:26:59;;;;;;;;;;;14.20;99.90;;;;;;5034926;28;19925;-73
2021/09/09 06:29:34;;;;;;;;;;;14.20;99.90;;;;;;5022282;28;19929;-74
2021/09/09 06:32:06;;;;;;;;;;;14.30;99.90;;;;;;5011119;28;20399;-73
2021/09/09 06:34:33;;;;;;;;;;;14.30;99.90;;;;;;5035386;28;19978;-73
2021/09/09 06:37:07;;;;;;;;;;;14.40;99.90;;;;;;5020069;28;19978;-74
2021/09/09 06:39:37;;;;;;;;;;;14.50;99.90;;;;;;5019603;28;19931;-74
2021/09/09 06:42:10;;;;;;;;;;;14.60;99.90;;;;;;5035624;28;19944;-74
2021/09/09 06:44:46;;;;;;;;;;;14.60;99.90;;;;;;5016177;28;20022;-74
2021/09/09 06:47:16;;;;;;;;;;;14.70;99.90;;;;;;5015472;28;19925;-74
2021/09/09 06:49:45;;;;;;;;;;;14.80;99.90;;;;;;5039136;28;19925;-74
2021/09/09 06:52:12;;;;;;;;;;;14.90;99.90;;;;;;5015433;28;19932;-73
2021/09/09 06:54:43;;;;;;;;;;;15.00;99.90;;;;;;5018725;28;19931;-74
2021/09/09 06:57:22;;;;;;;;;;;15.20;99.90;;;;;;5025653;28;20011;-73
2021/09/09 06:59:51;;;;;;;;;;;15.30;99.90;;;;;;5011370;28;20027;-74
2021/09/09 07:02:29;;;;;;;;;;;15.50;99.90;;;;;;5052390;28;20413;-74
2021/09/09 07:05:04;;;;;;;;;;;15.60;99.90;;;;;;5022205;28;19998;-74
2021/09/09 07:07:45;;;;;;;;;;;15.80;99.90;;;;;;5034612;28;19925;-74
2021/09/09 07:10:16;;;;;;;;;;;16.00;99.90;;;;;;5051141;28;20433;-74
2021/09/09 07:12:47;;;;;;;;;;;16.20;99.90;;;;;;5016205;28;20446;-74
2021/09/09 07:15:25;;;;;;;;;;;16.40;99.90;;;;;;5016544;28;19925;-74
2021/09/09 07:18:00;;;;;;;;;;;16.50;99.90;;;;;;5018927;28;20306;-74
2021/09/09 07:20:28;;;;;;;;;;;16.70;99.90;;;;;;5031701;28;20422;-74
2021/09/09 07:23:00;;;;;;;;;;;16.90;99.90;;;;;;5028410;28;20296;-74
2021/09/09 07:25:35;;;;;;;;;;;17.00;99.90;;;;;;5022406;28;19986;-74
2021/09/09 07:28:04;;;;;;;;;;;17.00;99.90;;;;;;5042855;28;19925;-74
2021/09/09 07:30:35;;;;;;;;;;;17.10;99.90;;;;;;5030343;28;19925;-74
2021/09/09 07:33:08;;;;;;;;;;;17.10;99.90;;;;;;5033813;28;20019;-74
2021/09/09 07:35:41;;;;;;;;;;;17.20;99.90;;;;;;5033941;28;19956;-74
2021/09/09 07:38:10;;;;;;;;;;;17.20;99.90;;;;;;5034328;28;19925;-74
2021/09/09 07:40:41;;;;;;;;;;;17.30;99.90;;;;;;5035718;28;19925;-74
2021/09/09 07:43:14;;;;;;;;;;;17.40;99.90;;;;;;5026745;28;20021;-74
2021/09/09 07:45:42;;;;;;;;;;;17.50;99.90;;;;;;5013964;28;20399;-74
2021/09/09 07:48:09;;;;;;;;;;;17.60;99.90;;;;;;5014342;28;20374;-74
2021/09/09 07:50:37;;;;;;;;;;;17.60;99.90;;;;;;5014205;28;20366;-74
2021/09/09 07:53:05;;;;;;;;;;;17.70;99.90;;;;;;5030703;28;19975;-74
2021/09/09 07:55:38;;;;;;;;;;;17.80;99.90;;;;;;5029112;28;20379;-74
2021/09/09 07:58:12;;;;;;;;;;;17.80;99.90;;;;;;5026730;28;20027;-74
2021/09/09 08:00:42;;;;;;;;;;;17.90;99.90;;;;;;5022894;28;19940;-73
2021/09/09 08:03:23;;;;;;;;;;;18.10;99.90;;;;;;5028499;28;20430;-76
2021/09/09 08:05:51;;;;;;;;;;;18.20;99.90;;;;;;5031446;28;20046;-73
2021/09/09 08:08:23;;;;;;;;;;;18.40;99.90;;;;;;5034081;28;19932;-74
2021/09/09 08:10:55;;;;;;;;;;;18.50;99.90;;;;;;5021332;28;20383;-74
2021/09/09 08:13:25;;;;;;;;;;;18.60;99.90;;;;;;5049994;28;20463;-74
2021/09/09 08:15:58;;;;;;;;;;;18.70;99.90;;;;;;5044289;28;20496;-74
2021/09/09 08:18:43;;;;;;;;;;;18.80;99.90;;;;;;5033534;28;19929;-73
2021/09/09 08:21:23;;;;;;;;;;;18.80;99.90;;;;;;5051793;28;20012;-74
2021/09/09 08:23:53;;;;;;;;;;;18.90;99.90;;;;;;5033566;28;22323;-74
2021/09/09 08:26:28;;;;;;;;;;;19.00;99.90;;;;;;5037219;28;20410;-74
2021/09/09 08:29:00;;;;;;;;;;;19.10;99.90;;;;;;5014555;28;19931;-74
2021/09/09 08:31:33;;;;;;;;;;;19.30;99.90;;;;;;5013615;28;19925;-74
2021/09/09 08:34:10;;;;;;;;;;;19.50;99.90;;;;;;5013903;28;19925;-74
2021/09/09 08:36:49;;;;;;;;;;;19.70;99.90;;;;;;5025030;28;20453;-74
2021/09/09 08:39:20;;;;;;;;;;;19.80;99.90;;;;;;5026682;28;20293;-74
2021/09/09 08:41:51;;;;;;;;;;;19.80;99.90;;;;;;5031848;28;19925;-74
2021/09/09 08:44:18;;;;;;;;;;;19.90;99.90;;;;;;5053818;28;20563;-74
2021/09/09 08:46:51;;;;;;;;;;;20.00;99.90;;;;;;5038997;28;20004;-74
2021/09/09 08:49:25;;;;;;;;;;;20.00;99.90;;;;;;5037530;28;20315;-74
2021/09/09 08:51:58;;;;;;;;;;;20.10;99.90;;;;;;5035712;28;19925;-74
2021/09/09 08:54:26;;;;;;;;;;;20.20;99.90;;;;;;5034400;28;19924;-74
2021/09/09 08:56:55;;;;;;;;;;;20.40;99.90;;;;;;5030138;28;20346;-73
2021/09/09 08:59:22;;;;;;;;;;;20.40;99.90;;;;;;5016754;28;20350;-73
2021/09/09 09:02:09;;;;;;;;;;;20.30;99.90;;;;;;5017421;28;20032;-74
2021/09/09 09:04:59;;;;;;;;;;;20.20;99.90;;;;;;5015353;28;20360;-72
2021/09/09 09:07:33;;;;;;;;;;;20.20;99.90;;;;;;5027994;28;20307;-74
2021/09/09 09:10:06;;;;;;;;;;;20.10;99.90;;;;;;5026527;28;20023;-73
2021/09/09 09:12:42;;;;;;;;;;;20.10;99.90;;;;;;5037889;28;19924;-73
2021/09/09 09:15:29;;;;;;;;;;;20.20;99.90;;;;;;5036037;28;20681;-74
2021/09/09 09:18:08;;;;;;;;;;;20.20;99.90;;;;;;5038058;28;19924;-74
2021/09/09 09:20:40;;;;;;;;;;;20.40;99.90;;;;;;5024146;28;19929;-73
2021/09/09 09:23:17;;;;;;;;;;;20.50;99.90;;;;;;5019469;28;20453;-74
2021/09/09 09:25:49;;;;;;;;;;;20.80;99.90;;;;;;5035069;28;19925;-73
2021/09/09 09:28:33;;;;;;;;;;;20.90;99.90;;;;;;5020352;28;19968;-74
2021/09/09 09:31:06;;;;;;;;;;;21.10;99.90;;;;;;5007219;28;19925;-74
2021/09/09 09:33:35;;;;;;;;;;;21.10;99.90;;;;;;5030920;28;19924;-73
2021/09/09 09:36:28;;;;;;;;;;;21.00;99.90;;;;;;5036638;28;19960;-73
2021/09/09 09:39:06;;;;;;;;;;;21.00;99.90;;;;;;5036494;28;19925;-74
2021/09/09 09:42:00;;;;;;;;;;;21.00;99.90;;;;;;5037690;28;19924;-73
2021/09/09 09:44:35;;;;;;;;;;;21.10;99.90;;;;;;4987225;28;20389;-74
2021/09/09 09:47:09;;;;;;;;;;;21.30;99.90;;;;;;5026758;28;19939;-73
2021/09/09 09:49:45;;;;;;;;;;;21.30;99.90;;;;;;5028980;28;19982;-74
2021/09/09 09:52:26;;;;;;;;;;;21.40;99.90;;;;;;5037678;28;19931;-74
2021/09/09 09:54:57;;;;;;;;;;;21.60;99.90;;;;;;5035379;28;19925;-72
2021/09/09 09:57:33;;;;;;;;;;;21.80;99.90;;;;;;5037324;28;20405;-74
2021/09/09 10:00:01;;;;;;;;;;;22.10;99.90;;;;;;5054122;28;19925;-75
2021/09/09 10:02:38;;;;;;;;;;;22.40;99.90;;;;;;5048636;28;19925;-74
2021/09/09 10:05:05;;;;;;;;;;;22.50;99.90;;;;;;5025475;28;19929;-74
2021/09/09 10:07:36;;;;;;;;;;;22.50;99.90;;;;;;5035298;28;19932;-74
2021/09/09 10:10:04;;;;;;;;;;;22.50;99.90;;;;;;5033611;28;19925;-74
2021/09/09 10:12:39;;;;;;;;;;;22.60;99.90;;;;;;5030672;28;19925;-74
2021/09/09 10:15:12;;;;;;;;;;;22.80;99.90;;;;;;5026552;28;19925;-74
2021/09/09 10:17:49;;;;;;;;;;;22.80;99.90;;;;;;5031918;28;19924;-74
2021/09/09 10:20:25;;;;;;;;;;;22.90;99.90;;;;;;5032894;28;20028;-74
2021/09/09 10:23:07;;;;;;;;;;;22.90;99.90;;;;;;5033854;28;20423;-75
2021/09/09 10:25:47;;;;;;;;;;;23.00;99.90;;;;;;5034720;28;19925;-74
2021/09/09 10:28:37;;;;;;;;;;;23.10;99.90;;;;;;5035409;28;19928;-74
2021/09/09 10:31:21;;;;;;;;;;;23.10;99.90;;;;;;5020585;28;19925;-75
2021/09/09 10:33:51;;;;;;;;;;;23.20;99.90;;;;;;5023300;28;19963;-74
2021/09/09 10:36:40;;;;;;;;;;;23.30;99.90;;;;;;5049826;28;19952;-74
2021/09/09 10:39:27;;;;;;;;;;;23.40;99.90;;;;;;5035492;28;19975;-74
2021/09/09 10:41:59;;;;;;;;;;;23.50;99.90;;;;;;5011519;28;20409;-74
2021/09/09 10:44:34;;;;;;;;;;;23.40;99.90;;;;;;5035212;28;19931;-73
2021/09/09 10:47:16;;;;;;;;;;;22.90;99.90;;;;;;5052958;28;20010;-74
2021/09/09 10:49:59;;;;;;;;;;;22.60;99.90;;;;;;5052903;28;20016;-74
2021/09/09 10:52:26;;;;;;;;;;;22.20;99.90;;;;;;5019176;28;20019;-74
2021/09/09 10:55:03;;;;;;;;;;;22.10;99.90;;;;;;5019058;28;20023;-74
2021/09/09 10:57:30;;;;;;;;;;;22.20;99.90;;;;;;5035174;28;20280;-74
2021/09/09 10:59:57;;;;;;;;;;;22.40;99.90;;;;;;5053264;28;20348;-75
2021/09/09 11:02:29;;;;;;;;;;;22.50;99.90;;;;;;5035983;28;19939;-73
2021/09/09 11:05:04;;;;;;;;;;;22.50;99.90;;;;;;5034575;28;20011;-74
2021/09/09 11:07:32;;;;;;;;;;;22.50;99.90;;;;;;5018187;28;20704;-73
2021/09/09 11:10:18;;;;;;;;;;;22.40;99.90;;;;;;5034491;28;19925;-74
2021/09/09 11:12:45;;;;;;;;;;;22.20;99.90;;;;;;5047717;28;19929;-74
2021/09/09 11:15:17;;;;;;;;;;;22.10;99.90;;;;;;5029351;28;19947;-74
2021/09/09 11:17:55;;;;;;;;;;;22.10;99.90;;;;;;5021857;28;19932;-74
2021/09/09 11:20:28;;;;;;;;;;;22.10;99.90;;;;;;5026340;28;20457;-74
2021/09/09 11:23:07;;;;;;;;;;;22.20;99.90;;;;;;5052142;28;19928;-74
2021/09/09 11:25:38;;;;;;;;;;;22.40;99.90;;;;;;5012872;28;20015;-74
2021/09/09 11:28:10;;;;;;;;;;;22.50;99.90;;;;;;5026176;28;19959;-74
2021/09/09 11:30:37;;;;;;;;;;;22.80;99.90;;;;;;5034485;28;19925;-74
2021/09/09 11:33:09;;;;;;;;;;;23.00;99.90;;;;;;5018555;28;19956;-74
2021/09/09 11:35:59;;;;;;;;;;;23.20;99.90;;;;;;5051650;28;19935;-74
2021/09/09 11:38:31;;;;;;;;;;;23.40;99.90;;;;;;5018374;28;19994;-74
2021/09/09 11:41:07;;;;;;;;;;;23.70;99.90;;;;;;5052202;28;20011;-74
2021/09/09 11:43:34;;;;;;;;;;;23.80;99.90;;;;;;5034052;28;20016;-74
2021/09/09 11:46:06;;;;;;;;;;;24.00;99.90;;;;;;5033430;28;20027;-75
2021/09/09 11:48:37;;;;;;;;;;;24.10;99.90;;;;;;5017630;28;20040;-74
2021/09/09 11:51:04;;;;;;;;;;;24.20;99.90;;;;;;5032042;28;19955;-75
2021/09/09 11:53:36;;;;;;;;;;;24.30;99.90;;;;;;5032009;28;19932;-73
2021/09/09 11:56:18;;;;;;;;;;;24.50;99.90;;;;;;5027063;28;19925;-73
2021/09/09 11:58:50;;;;;;;;;;;24.60;99.90;;;;;;5033202;28;20294;-73
2021/09/09 12:01:22;;;;;;;;;;;24.60;99.90;;;;;;5017603;28;20011;-73
2021/09/09 12:03:49;;;;;;;;;;;24.60;99.90;;;;;;5034005;28;20025;-74
2021/09/09 12:06:17;;;;;;;;;;;24.70;99.90;;;;;;5025229;28;19932;-73
2021/09/09 12:08:49;;;;;;;;;;;24.80;99.90;;;;;;5014076;28;20342;-75
2021/09/09 12:11:16;;;;;;;;;;;24.90;99.90;;;;;;5024828;28;20384;-73
2021/09/09 12:13:48;;;;;;;;;;;25.10;99.90;;;;;;5017829;28;19975;-73
2021/09/09 12:16:21;;;;;;;;;;;25.20;99.90;;;;;;5033876;28;19967;-73
2021/09/09 12:18:59;;;;;;;;;;;25.30;99.90;;;;;;5017194;28;19931;-73
2021/09/09 12:21:25;;;;;;;;;;;25.40;99.90;;;;;;5033148;28;20023;-73
2021/09/09 12:24:04;;;;;;;;;;;25.50;99.90;;;;;;5051075;28;19963;-73
2021/09/09 12:26:37;;;;;;;;;;;25.50;99.90;;;;;;5022427;28;19980;-74
2021/09/09 12:29:17;;;;;;;;;;;25.60;99.90;;;;;;5019615;28;19960;-76
2021/09/09 12:31:44;;;;;;;;;;;25.60;99.90;;;;;;5008391;28;20355;-75
2021/09/09 12:34:15;;;;;;;;;;;25.60;99.90;;;;;;5041736;28;19967;-75
2021/09/09 12:36:42;;;;;;;;;;;25.60;99.90;;;;;;5029075;28;19929;-75
2021/09/09 12:39:09;;;;;;;;;;;25.40;99.90;;;;;;5028163;28;20023;-74
2021/09/09 12:41:36;;;;;;;;;;;25.40;99.90;;;;;;5032385;28;19925;-74
2021/09/09 12:44:09;;;;;;;;;;;25.30;99.90;;;;;;5026950;28;20471;-76
2021/09/09 12:46:43;;;;;;;;;;;25.30;99.90;;;;;;5051459;28;19925;-74
2021/09/09 12:49:19;;;;;;;;;;;25.40;99.90;;;;;;5030885;28;19929;-72
2021/09/09 12:51:57;;;;;;;;;;;25.50;99.90;;;;;;5034163;28;19925;-72
2021/09/09 12:54:29;;;;;;;;;;;25.60;99.90;;;;;;5050736;28;19924;-72
2021/09/09 12:57:00;;;;;;;;;;;25.70;99.80;;;;;;5033390;28;20023;-73
2021/09/09 12:59:32;;;;;;;;;;;25.70;99.90;;;;;;5033752;28;19932;-73
2021/09/09 13:02:06;;;;;;;;;;;25.70;98.30;;;;;;5029145;28;19925;-73
2021/09/09 13:04:38;;;;;;;;;;;25.70;98.40;;;;;;5012238;28;20029;-73
2021/09/09 13:07:09;;;;;;;;;;;25.80;98.40;;;;;;5042667;28;19931;-73
2021/09/09 13:09:41;;;;;;;;;;;25.70;98.20;;;;;;5017693;28;20299;-73
2021/09/09 13:12:08;;;;;;;;;;;25.80;97.10;;;;;;5033009;28;19925;-75
2021/09/09 13:14:40;;;;;;;;;;;25.80;97.00;;;;;;5053789;28;20027;-73
2021/09/09 13:17:11;;;;;;;;;;;25.70;96.10;;;;;;5051480;28;19928;-73
2021/09/09 13:19:38;;;;;;;;;;;25.70;96.40;;;;;;5023576;28;19926;-73
2021/09/09 13:22:10;;;;;;;;;;;25.80;98.00;;;;;;5049575;28;19925;-73
2021/09/09 13:24:44;;;;;;;;;;;25.80;97.40;;;;;;5016884;28;19929;-72
2021/09/09 13:27:15;;;;;;;;;;;25.80;97.60;;;;;;5051162;28;20369;-72
2021/09/09 13:29:47;;;;;;;;;;;25.90;96.90;;;;;;5051804;28;20019;-74
2021/09/09 13:32:14;;;;;;;;;;;26.00;97.20;;;;;;5020255;28;20015;-73
2021/09/09 13:34:41;;;;;;;;;;;26.10;96.00;;;;;;5036140;28;20355;-73
2021/09/09 13:37:13;;;;;;;;;;;26.10;95.60;;;;;;5030529;28;19925;-73
2021/09/09 13:39:44;;;;;;;;;;;26.10;96.10;;;;;;5034416;28;20363;-73
2021/09/09 13:42:16;;;;;;;;;;;26.00;95.10;;;;;;5034044;28;19935;-74
2021/09/09 13:44:48;;;;;;;;;;;26.00;95.20;;;;;;5036783;28;20393;-73
2021/09/09 13:47:19;;;;;;;;;;;26.10;95.60;;;;;;5014021;28;20007;-73
2021/09/09 13:49:51;;;;;;;;;;;26.20;94.50;;;;;;5036892;28;20310;-73
2021/09/09 13:52:18;;;;;;;;;;;26.30;95.40;;;;;;5036284;28;20028;-73
2021/09/09 13:54:49;;;;;;;;;;;26.40;93.80;;;;;;5035533;28;20333;-72
2021/09/09 13:57:21;;;;;;;;;;;26.50;94.60;;;;;;5034187;28;19925;-75
2021/09/09 13:59:53;;;;;;;;;;;26.40;93.10;;;;;;5017400;28;19925;-72
2021/09/09 14:02:24;;;;;;;;;;;26.20;93.40;;;;;;5027153;28;20401;-72
2021/09/09 14:04:56;;;;;;;;;;;26.20;93.30;;;;;;5053281;28;19935;-72
2021/09/09 14:07:28;;;;;;;;;;;26.20;93.40;;;;;;5053620;28;19925;-74
2021/09/09 14:10:00;;;;;;;;;;;26.10;92.10;;;;;;5035815;28;20019;-72
2021/09/09 14:12:27;;;;;;;;;;;26.10;92.40;;;;;;5053802;28;20015;-74
2021/09/09 14:14:58;;;;;;;;;;;26.10;93.90;;;;;;5035109;28;19931;-73
2021/09/09 14:17:25;;;;;;;;;;;26.20;93.10;;;;;;5036009;28;20350;-73
2021/09/09 14:19:51;;;;;;;;;;;26.20;92.20;;;;;;5035757;28;19989;-73
2021/09/09 14:22:18;;;;;;;;;;;26.10;91.80;;;;;;5053634;28;20011;-72
2021/09/09 14:24:50;;;;;;;;;;;26.20;92.00;;;;;;5035283;28;20012;-73
2021/09/09 14:27:22;;;;;;;;;;;26.10;92.10;;;;;;5053763;28;19925;-72
2021/09/09 14:29:54;;;;;;;;;;;26.20;92.80;;;;;;5032938;28;19931;-72
2021/09/09 14:32:26;;;;;;;;;;;26.20;92.40;;;;;;5036408;28;20375;-73
2021/09/09 14:34:57;;;;;;;;;;;26.30;91.80;;;;;;5044168;28;21952;-74
2021/09/09 14:37:29;;;;;;;;;;;26.40;91.70;;;;;;5035529;28;20011;-73
2021/09/09 14:39:55;;;;;;;;;;;26.50;91.80;;;;;;5033515;28;20028;-74